Time;durP1;ratioP1;P1;durP2;ratioP2;P2;SDS_P1;SDS_P2;PMS_P1;PMS_P2;Temp;Humidity;BMP_temperature;BMP_pressure;BME280_temperature;BME280_humidity;BME280_pressure;Samples;Min_cycle;Max_cycle;Signal;HPM_P1;HPM_P2
2021/07/15 00:01:54;;;;;;;16.60;8.23;;;;;;;25.18;47.45;93806.03;5090782;28;20026;-73
2021/07/15 00:04:19;;;;;;;9.70;7.90;;;;;;;25.17;47.07;93798.25;5091106;28;20410;-73
2021/07/15 00:06:45;;;;;;;11.75;7.82;;;;;;;25.17;47.09;93801.75;5090638;28;20378;-73
2021/07/15 00:09:13;;;;;;;11.32;7.90;;;;;;;25.17;46.39;93812.66;5071194;28;20025;-79
2021/07/15 00:11:40;;;;;;;15.02;8.65;;;;;;;25.11;45.76;93811.56;5090630;28;20086;-77
2021/07/15 00:14:06;;;;;;;13.38;7.15;;;;;;;25.08;44.17;93811.63;5090856;28;20043;-77
2021/07/15 00:16:32;;;;;;;14.05;7.88;;;;;;;25.03;44.51;93821.00;5090483;28;20052;-77
2021/07/15 00:18:58;;;;;;;11.30;7.68;;;;;;;25.05;44.50;93820.59;5090361;28;20028;-77
2021/07/15 00:21:25;;;;;;;15.32;8.20;;;;;;;24.93;44.42;93817.19;5090046;28;20103;-77
2021/07/15 00:23:52;;;;;;;12.68;7.40;;;;;;;24.89;45.01;93821.16;5087093;28;20082;-77
2021/07/15 00:26:19;;;;;;;16.75;8.00;;;;;;;24.83;44.86;93820.81;5087915;28;20097;-77
2021/07/15 00:28:45;;;;;;;14.30;7.97;;;;;;;24.76;46.01;93821.66;5092496;28;20439;-78
2021/07/15 00:31:10;;;;;;;13.10;8.07;;;;;;;24.76;46.99;93820.88;5094104;28;20087;-78
2021/07/15 00:33:36;;;;;;;14.55;7.88;;;;;;;24.71;47.75;93824.03;5094626;28;20028;-73
2021/07/15 00:36:03;;;;;;;17.08;9.50;;;;;;;24.60;48.51;93826.88;5094338;28;20107;-73
2021/07/15 00:38:28;;;;;;;12.95;8.00;;;;;;;24.58;49.07;93827.28;5093055;28;20119;-73
2021/07/15 00:40:54;;;;;;;15.98;8.27;;;;;;;24.55;49.09;93825.38;5094778;28;20106;-73
2021/07/15 00:43:19;;;;;;;14.00;8.43;;;;;;;24.51;49.53;93823.84;5094415;28;20023;-73
2021/07/15 00:45:45;;;;;;;11.68;7.53;;;;;;;24.42;49.48;93818.81;5094590;28;20031;-73
2021/07/15 00:48:11;;;;;;;13.23;8.60;;;;;;;24.46;49.47;93816.84;5076054;28;20055;-73
2021/07/15 00:50:37;;;;;;;11.63;7.78;;;;;;;24.46;48.71;93814.13;5093206;28;20039;-72
2021/07/15 00:53:05;;;;;;;16.05;7.78;;;;;;;24.45;46.83;93812.59;5091531;28;20076;-72
2021/07/15 00:55:49;;;;;;;19.58;9.30;;;;;;;24.39;46.30;93808.75;5076470;28;20026;-72
2021/07/15 00:58:16;;;;;;;16.40;8.82;;;;;;;24.34;45.58;93803.72;5094687;28;20030;-72
2021/07/15 01:00:48;;;;;;;12.98;8.38;;;;;;;24.29;46.62;93806.91;5094001;28;20020;-77
2021/07/15 01:03:15;;;;;;;14.75;8.88;;;;;;;24.25;47.12;93819.75;5093732;28;20106;-76
2021/07/15 01:05:43;;;;;;;12.68;8.48;;;;;;;24.20;46.86;93808.13;5093513;28;20112;-76
2021/07/15 01:08:10;;;;;;;16.90;8.40;;;;;;;24.16;47.15;93812.81;5093208;28;20031;-76
2021/07/15 01:10:42;;;;;;;11.50;8.18;;;;;;;24.13;46.86;93816.34;5092982;28;20032;-76
2021/07/15 01:13:37;;;;;;;13.40;8.32;;;;;;;24.05;46.75;93809.41;5093441;28;20035;-76
2021/07/15 01:16:28;;;;;;;10.15;7.78;;;;;;;23.98;46.74;93795.84;5091837;28;20036;-76
2021/07/15 01:19:05;;;;;;;14.75;8.35;;;;;;;23.88;47.16;93807.59;5092957;28;20031;-79
2021/07/15 01:22:05;;;;;;;13.82;8.20;;;;;;;23.77;47.28;93797.53;5093219;28;20093;-79
2021/07/15 01:24:48;;;;;;;15.45;8.18;;;;;;;23.71;47.74;93801.84;5093294;28;20027;-79
2021/07/15 01:27:41;;;;;;;11.55;8.52;;;;;;;23.64;47.85;93807.31;5090773;28;20411;-79
2021/07/15 01:30:08;;;;;;;13.05;8.82;;;;;;;23.60;48.42;93804.59;5074918;28;20489;-79
2021/07/15 01:32:42;;;;;;;12.40;8.68;;;;;;;23.53;48.58;93806.56;5093117;28;20032;-79
2021/07/15 01:35:11;;;;;;;14.23;8.10;;;;;;;23.44;48.99;93813.22;5092679;28;20043;-79
2021/07/15 01:37:38;;;;;;;19.30;9.25;;;;;;;23.40;49.50;93795.38;5092902;28;20502;-79
2021/07/15 01:40:06;;;;;;;14.25;8.32;;;;;;;23.32;50.17;93800.06;5092463;28;20059;-73
2021/07/15 01:42:35;;;;;;;15.75;7.43;;;;;;;23.27;49.91;93803.22;5091608;28;20104;-73
2021/07/15 01:45:01;;;;;;;11.63;8.35;;;;;;;23.22;50.20;93798.97;5092968;28;20379;-73
2021/07/15 01:47:27;;;;;;;16.80;8.18;;;;;;;23.20;49.64;93803.22;5074406;28;20020;-73
2021/07/15 01:49:58;;;;;;;13.93;8.30;;;;;;;23.22;49.99;93800.91;5092400;28;20047;-73
2021/07/15 01:52:25;;;;;;;21.48;8.52;;;;;;;23.17;50.06;93812.19;5092530;28;20048;-73
2021/07/15 01:54:52;;;;;;;18.08;9.07;;;;;;;23.11;49.89;93816.50;5092896;28;20051;-73
2021/07/15 01:57:20;;;;;;;12.55;7.88;;;;;;;23.09;49.75;93816.09;5092270;28;20478;-73
2021/07/15 01:59:46;;;;;;;11.73;8.27;;;;;;;23.06;49.86;93817.69;5074237;28;20035;-73
2021/07/15 02:02:14;;;;;;;15.73;8.35;;;;;;;23.01;49.80;93816.13;5092343;28;20035;-73
2021/07/15 02:04:41;;;;;;;16.80;9.15;;;;;;;22.98;49.64;93819.59;5072698;28;20035;-73
2021/07/15 02:07:08;;;;;;;15.38;8.32;;;;;;;22.89;49.78;93821.19;5092310;28;20031;-72
2021/07/15 02:09:36;;;;;;;19.85;9.07;;;;;;;22.84;50.56;93819.66;5091062;28;20035;-72
2021/07/15 02:12:03;;;;;;;14.27;8.77;;;;;;;22.86;50.03;93811.09;5086069;28;20028;-72
2021/07/15 02:14:28;;;;;;;13.85;8.52;;;;;;;22.82;50.36;93816.53;5092559;28;20028;-72
2021/07/15 02:16:58;;;;;;;13.55;8.60;;;;;;;22.80;50.25;93816.16;5092874;28;20403;-72
2021/07/15 02:19:24;;;;;;;13.15;8.23;;;;;;;22.86;50.39;93816.53;5092769;28;20098;-72
2021/07/15 02:21:52;;;;;;;16.10;8.55;;;;;;;22.89;50.39;93826.63;5092526;28;20085;-72
2021/07/15 02:24:24;;;;;;;13.00;9.00;;;;;;;22.88;50.21;93820.41;5092986;28;20076;-72
2021/07/15 02:26:51;;;;;;;15.30;8.38;;;;;;;22.83;50.24;93827.00;5092730;28;20020;-72
2021/07/15 02:29:18;;;;;;;12.25;8.93;;;;;;;22.77;50.62;93809.56;5092721;28;20458;-72
2021/07/15 02:31:48;;;;;;;12.93;8.88;;;;;;;22.77;50.73;93814.22;5089833;28;20077;-72
2021/07/15 02:34:42;;;;;;;18.02;9.38;;;;;;;22.75;50.92;93816.56;5074141;28;20031;-72
2021/07/15 02:37:11;;;;;;;15.27;9.57;;;;;;;22.68;51.62;93816.56;5092575;28;20034;-72
2021/07/15 02:39:36;;;;;;;19.75;8.98;;;;;;;22.70;51.08;93822.41;5092532;28;20048;-72
2021/07/15 02:42:02;;;;;;;16.75;8.65;;;;;;;22.74;51.14;93820.44;5091145;28;20443;-72
2021/07/15 02:44:28;;;;;;;13.15;8.43;;;;;;;22.75;51.24;93816.56;5092707;28;20085;-72
2021/07/15 02:46:54;;;;;;;17.42;8.85;;;;;;;22.72;51.50;93818.13;5092580;28;20047;-72
2021/07/15 02:49:19;;;;;;;13.65;9.02;;;;;;;22.70;52.23;93815.00;5092356;28;20116;-72
2021/07/15 02:51:45;;;;;;;13.23;8.85;;;;;;;22.67;52.55;93815.78;5091746;28;20487;-72
2021/07/15 02:54:10;;;;;;;17.48;9.75;;;;;;;22.63;52.78;93809.59;5092085;28;20039;-72
2021/07/15 02:56:42;;;;;;;13.77;9.45;;;;;;;22.61;52.91;93820.06;5092345;28;20170;-72
2021/07/15 02:59:22;;;;;;;13.77;9.35;;;;;;;22.57;53.27;93811.94;5092079;28;20033;-72
2021/07/15 03:02:17;;;;;;;17.48;9.52;;;;;;;22.53;53.61;93808.47;5092278;28;20111;-72
2021/07/15 03:04:49;;;;;;;18.20;9.40;;;;;;;22.48;53.45;93819.69;5061933;28;20032;-72
2021/07/15 03:07:17;;;;;;;13.95;9.57;;;;;;;22.48;53.55;93814.28;5091912;28;20031;-73
2021/07/15 03:09:49;;;;;;;14.98;9.50;;;;;;;22.42;53.90;93822.03;5091251;28;20063;-73
2021/07/15 03:12:21;;;;;;;17.42;8.88;;;;;;;22.41;54.45;93828.63;5073054;28;21477;-73
2021/07/15 03:14:47;;;;;;;14.97;9.83;;;;;;;22.40;54.44;93829.78;5090910;28;20077;-73
2021/07/15 03:17:22;;;;;;;18.60;8.88;;;;;;;22.40;54.51;93834.44;5091379;28;20115;-70
2021/07/15 03:19:51;;;;;;;18.42;9.27;;;;;;;22.35;54.40;93827.47;5073287;28;20016;-70
2021/07/15 03:22:17;;;;;;;15.90;10.52;;;;;;;22.34;54.65;93825.91;5091361;28;20031;-70
2021/07/15 03:24:49;;;;;;;19.38;10.38;;;;;;;22.33;54.56;93824.38;5072169;28;20095;-70
2021/07/15 03:27:17;;;;;;;14.18;9.52;;;;;;;22.32;54.28;93830.94;5090282;28;20433;-70
2021/07/15 03:29:44;;;;;;;20.73;9.23;;;;;;;22.30;53.95;93825.13;5088549;28;20039;-70
2021/07/15 03:32:12;;;;;;;14.35;9.50;;;;;;;22.30;54.37;93824.38;5091500;28;20053;-70
2021/07/15 03:34:38;;;;;;;17.58;10.07;;;;;;;22.27;55.04;93825.13;5072647;28;20173;-71
2021/07/15 03:37:04;;;;;;;18.17;10.73;;;;;;;22.28;56.30;93822.03;5071966;28;20058;-70
2021/07/15 03:39:30;;;;;;;14.05;10.82;;;;;;;22.28;56.82;93821.25;5091113;28;20020;-71
2021/07/15 03:41:57;;;;;;;15.55;11.75;;;;;;;22.28;56.83;93826.69;5091092;28;20027;-71
2021/07/15 03:44:24;;;;;;;15.55;10.73;;;;;;;22.30;56.97;93818.94;5091178;28;20100;-71
2021/07/15 03:46:50;;;;;;;16.05;10.38;;;;;;;22.28;56.37;93826.69;5071549;28;20025;-70
2021/07/15 03:49:18;;;;;;;16.05;10.30;;;;;;;22.28;56.69;93832.13;5091266;28;20036;-71
2021/07/15 03:51:45;;;;;;;17.08;11.25;;;;;;;22.34;56.28;93817.00;5071442;28;20158;-72
2021/07/15 03:54:12;;;;;;;18.17;10.73;;;;;;;22.37;56.66;93827.88;5091150;28;20032;-71
2021/07/15 03:56:39;;;;;;;17.70;10.35;;;;;;;22.41;56.90;93836.00;5090990;28;20035;-71
2021/07/15 03:59:05;;;;;;;14.73;10.57;;;;;;;22.43;57.53;93830.97;5090573;28;20051;-70
2021/07/15 04:01:32;;;;;;;15.85;11.45;;;;;;;22.47;57.44;93823.59;5090711;28;20059;-71
2021/07/15 04:04:00;;;;;;;21.08;12.00;;;;;;;22.50;57.47;93825.50;5090190;28;20026;-70
2021/07/15 04:06:27;;;;;;;17.10;10.13;;;;;;;22.53;57.07;93824.75;5090737;28;20024;-70
2021/07/15 04:08:53;;;;;;;18.50;11.27;;;;;;;22.60;57.25;93829.38;5090483;28;20020;-70
2021/07/15 04:11:21;;;;;;;16.85;11.27;;;;;;;22.63;57.51;93829.41;5090751;28;20097;-71
2021/07/15 04:13:47;;;;;;;15.20;10.88;;;;;;;22.69;57.51;93824.31;5090777;28;20028;-71
2021/07/15 04:16:20;;;;;;;22.48;10.63;;;;;;;22.74;58.01;93826.66;5090546;28;20031;-70
2021/07/15 04:18:51;;;;;;;16.08;11.10;;;;;;;22.75;58.27;93828.19;5090513;28;20022;-71
2021/07/15 04:21:17;;;;;;;18.00;11.90;;;;;;;22.78;56.73;93823.94;5089542;28;20020;-71
2021/07/15 04:23:43;;;;;;;18.15;10.73;;;;;;;22.80;56.51;93829.75;5088788;28;20070;-71
2021/07/15 04:26:10;;;;;;;17.27;11.68;;;;;;;22.84;57.94;93830.50;5090185;28;20475;-71
2021/07/15 04:28:35;;;;;;;18.20;11.25;;;;;;;22.89;57.00;93821.19;5090049;28;20063;-71
2021/07/15 04:31:21;;;;;;;19.38;11.32;;;;;;;22.89;55.98;93821.94;5070606;28;20455;-71
2021/07/15 04:33:47;;;;;;;15.98;10.82;;;;;;;22.93;57.08;93821.94;5071581;28;20020;-71
2021/07/15 04:36:12;;;;;;;21.23;11.23;;;;;;;23.02;57.10;93823.13;5090344;28;20030;-70
2021/07/15 04:38:39;;;;;;;22.95;12.65;;;;;;;23.11;57.28;93816.50;5090304;28;20081;-78
2021/07/15 04:41:06;;;;;;;14.77;11.70;;;;;;;23.18;57.23;93822.69;5071160;28;20032;-77
2021/07/15 04:43:32;;;;;;;17.17;12.55;;;;;;;23.25;56.27;93816.44;5089771;28;20403;-78
2021/07/15 04:45:58;;;;;;;27.35;13.23;;;;;;;23.28;56.67;93817.59;5071697;28;20471;-79
2021/07/15 04:48:24;;;;;;;18.95;13.38;;;;;;;23.36;56.93;93821.81;5071331;28;20111;-78
2021/07/15 04:50:51;;;;;;;23.95;14.00;;;;;;;23.47;56.03;93827.19;5089766;28;20028;-78
2021/07/15 04:53:19;;;;;;;22.88;14.00;;;;;;;23.60;55.77;93828.31;5089640;28;20043;-78
2021/07/15 04:55:46;;;;;;;26.98;13.23;;;;;;;23.64;55.60;93827.13;5089766;28;20039;-78
2021/07/15 04:58:13;;;;;;;21.35;14.38;;;;;;;23.69;56.00;93831.38;5089696;28;20024;-79
2021/07/15 05:00:39;;;;;;;27.60;15.20;;;;;;;23.75;55.91;93837.97;5071251;28;20040;-78
2021/07/15 05:03:07;;;;;;;21.90;16.33;;;;;;;23.76;56.84;93836.00;5089379;28;20048;-78
2021/07/15 05:05:32;;;;;;;27.30;17.20;;;;;;;23.77;56.85;93838.38;5071701;28;20036;-78
2021/07/15 05:07:58;;;;;;;29.05;18.75;;;;;;;23.80;56.66;93834.84;5089455;28;20098;-78
2021/07/15 05:10:23;;;;;;;23.30;15.52;;;;;;;23.83;56.53;93839.50;5089846;28;20042;-79
2021/07/15 05:12:49;;;;;;;25.55;16.70;;;;;;;23.93;56.60;93837.84;5071151;28;20020;-78
2021/07/15 05:15:15;;;;;;;22.48;15.00;;;;;;;24.00;56.65;93837.81;5092541;28;20494;-78
2021/07/15 05:17:40;;;;;;;24.33;15.38;;;;;;;24.02;56.39;93832.75;5093160;28;20107;-79
2021/07/15 05:20:07;;;;;;;20.92;14.85;;;;;;;24.07;55.67;93847.13;5093201;28;20106;-78
2021/07/15 05:22:33;;;;;;;23.67;16.30;;;;;;;24.09;56.25;93845.53;5092377;28;20051;-77
2021/07/15 05:24:59;;;;;;;30.08;18.08;;;;;;;24.13;56.57;93840.84;5093228;28;20031;-77
2021/07/15 05:27:24;;;;;;;29.77;17.67;;;;;;;24.13;56.43;93843.56;5074960;28;20066;-78
2021/07/15 05:29:50;;;;;;;32.17;18.75;;;;;;;24.19;56.71;93843.91;5093217;28;20514;-77
2021/07/15 05:32:15;;;;;;;29.90;17.88;;;;;;;24.29;56.61;93842.28;5073813;28;20036;-78
2021/07/15 05:34:40;;;;;;;41.35;19.92;;;;;;;24.41;56.23;93845.31;5074757;28;20032;-79
2021/07/15 05:37:06;;;;;;;50.42;18.75;;;;;;;24.53;55.76;93843.31;5073478;28;20024;-78
2021/07/15 05:39:32;;;;;;;32.60;19.25;;;;;;;24.63;55.33;93845.16;5074731;28;20516;-78
2021/07/15 05:41:58;;;;;;;38.90;17.65;;;;;;;24.77;55.30;93846.94;5074308;28;20116;-78
2021/07/15 05:44:23;;;;;;;31.55;19.50;;;;;;;24.88;54.65;93849.59;5092977;28;20028;-79
2021/07/15 05:46:49;;;;;;;24.35;18.00;;;;;;;25.00;54.38;93846.34;5093435;28;20090;-79
2021/07/15 05:49:14;;;;;;;35.05;17.40;;;;;;;25.10;53.94;93845.47;5092519;28;20024;-79
2021/07/15 05:51:39;;;;;;;32.55;17.30;;;;;;;25.23;53.76;93851.19;5092307;28;20157;-79
2021/07/15 05:54:05;;;;;;;33.15;17.35;;;;;;;25.30;53.53;93848.41;5092636;28;20031;-79
2021/07/15 05:56:30;;;;;;;25.73;16.23;;;;;;;25.37;53.44;93847.53;5092361;28;20495;-78
2021/07/15 05:58:56;;;;;;;24.17;16.30;;;;;;;25.49;52.76;93849.72;5091960;28;20478;-79
2021/07/15 06:01:22;;;;;;;32.13;17.38;;;;;;;25.52;52.33;93848.13;5092197;28;20031;-77
2021/07/15 06:03:47;;;;;;;32.55;16.63;;;;;;;25.57;51.91;93851.19;5093338;28;20122;-78
2021/07/15 06:06:13;;;;;;;22.42;15.32;;;;;;;25.56;51.04;93851.59;5092116;28;20497;-78
2021/07/15 06:08:39;;;;;;;34.47;15.65;;;;;;;25.49;52.33;93848.97;5096274;28;20021;-78
2021/07/15 06:11:04;;;;;;;32.55;15.98;;;;;;;25.51;51.76;93846.59;5090964;28;20376;-78
2021/07/15 06:13:30;;;;;;;25.95;15.48;;;;;;;25.60;52.07;93833.22;5089790;28;20028;-78
2021/07/15 06:15:55;;;;;;;30.38;15.13;;;;;;;25.67;51.69;93833.13;5091774;28;20076;-78
2021/07/15 06:18:20;;;;;;;23.48;15.40;;;;;;;25.76;52.11;93838.84;5091993;28;20024;-78
2021/07/15 06:20:46;;;;;;;28.02;15.70;;;;;;;25.88;50.18;93831.28;5092075;28;20020;-78
2021/07/15 06:23:12;;;;;;;25.42;15.98;;;;;;;25.89;50.60;93835.53;5091872;28;20036;-78
2021/07/15 06:25:37;;;;;;;27.65;16.65;;;;;;;25.93;50.88;93834.38;5073262;28;20039;-78
2021/07/15 06:28:03;;;;;;;23.85;15.30;;;;;;;26.08;51.66;93831.41;5091513;28;20028;-78
2021/07/15 06:30:28;;;;;;;21.42;14.52;;;;;;;26.19;50.71;93827.31;5092157;28;20028;-79
2021/07/15 06:32:54;;;;;;;24.05;14.60;;;;;;;26.27;50.19;93822.53;5090513;28;20020;-79
2021/07/15 06:35:21;;;;;;;38.38;14.90;;;;;;;26.23;50.29;93822.56;5091699;28;20072;-79
2021/07/15 06:37:53;;;;;;;28.98;14.00;;;;;;;26.37;50.39;93818.84;5091551;28;20028;-79
2021/07/15 06:40:20;;;;;;;26.88;13.88;;;;;;;26.50;49.71;93827.25;5091212;28;20040;-77
2021/07/15 06:42:46;;;;;;;23.73;13.50;;;;;;;26.60;49.78;93820.06;5071740;28;20040;-77
2021/07/15 06:45:13;;;;;;;26.10;13.63;;;;;;;26.71;49.16;93817.94;5091240;28;20040;-74
2021/07/15 06:47:39;;;;;;;24.17;13.63;;;;;;;26.75;48.98;93806.94;5072067;28;20024;-73
2021/07/15 06:50:07;;;;;;;27.30;13.57;;;;;;;26.82;48.63;93815.00;5091363;28;20031;-74
2021/07/15 06:52:34;;;;;;;28.60;13.65;;;;;;;26.89;49.17;93811.34;5090585;28;20044;-74
2021/07/15 06:55:02;;;;;;;22.70;14.02;;;;;;;26.95;48.74;93806.97;5091007;28;20049;-75
2021/07/15 06:57:29;;;;;;;28.17;14.40;;;;;;;27.01;48.51;93811.53;5089683;28;20043;-76
2021/07/15 06:59:55;;;;;;;23.92;12.50;;;;;;;27.12;47.90;93816.78;5091033;28;20028;-74
2021/07/15 07:02:20;;;;;;;32.92;14.13;;;;;;;27.18;47.97;93814.34;5089524;28;20115;-74
2021/07/15 07:04:46;;;;;;;27.10;13.52;;;;;;;27.24;47.69;93812.69;5090916;28;20032;-77
2021/07/15 07:07:11;;;;;;;25.17;13.93;;;;;;;27.20;47.76;93806.47;5090646;28;20067;-75
2021/07/15 07:09:37;;;;;;;19.45;13.15;;;;;;;27.28;47.55;93813.38;5091049;28;20035;-78
2021/07/15 07:12:03;;;;;;;26.77;13.13;;;;;;;27.14;47.55;93803.47;5071869;28;20415;-78
2021/07/15 07:14:35;;;;;;;25.23;13.52;;;;;;;27.19;47.84;93804.94;5092269;28;20514;-79
2021/07/15 07:17:09;;;;;;;29.65;13.10;;;;;;;27.29;46.70;93805.94;5099208;28;20028;-73
2021/07/15 07:19:35;;;;;;;18.88;13.35;;;;;;;27.27;47.39;93795.41;5067159;28;20459;-73
2021/07/15 07:22:00;;;;;;;20.52;13.63;;;;;;;27.30;47.23;93796.56;5090718;28;20246;-72
2021/07/15 07:24:25;;;;;;;41.08;15.07;;;;;;;27.42;47.18;93796.69;5091146;28;20019;-72
2021/07/15 07:26:51;;;;;;;25.98;13.15;;;;;;;27.60;46.90;93799.03;5090341;28;20031;-73
2021/07/15 07:29:16;;;;;;;34.65;13.32;;;;;;;27.65;46.84;93786.81;5072276;28;20031;-72
2021/07/15 07:31:42;;;;;;;18.67;13.77;;;;;;;27.75;46.12;93787.78;5090801;28;20089;-72
2021/07/15 07:34:07;;;;;;;31.02;13.93;;;;;;;27.87;46.35;93783.66;5090502;28;20883;-72
2021/07/15 07:36:33;;;;;;;22.73;13.35;;;;;;;27.92;46.61;93788.59;5088989;28;20495;-72
2021/07/15 07:38:58;;;;;;;19.88;12.77;;;;;;;28.01;45.98;93791.53;5089976;28;20027;-73
2021/07/15 07:41:24;;;;;;;18.55;12.50;;;;;;;28.09;45.40;93787.44;5090049;28;20031;-73
2021/07/15 07:43:49;;;;;;;19.23;13.50;;;;;;;28.16;45.24;93787.25;5090260;28;20402;-72
2021/07/15 07:46:15;;;;;;;23.50;12.52;;;;;;;28.28;45.30;93787.78;5089976;28;20020;-74
2021/07/15 07:48:40;;;;;;;28.52;11.93;;;;;;;28.37;44.59;93783.25;5072005;28;20032;-73
2021/07/15 07:51:06;;;;;;;24.35;12.32;;;;;;;28.43;44.25;93791.69;5090132;28;20023;-73
2021/07/15 07:53:31;;;;;;;20.88;11.98;;;;;;;28.45;44.00;93783.81;5090189;28;20054;-73
2021/07/15 07:55:56;;;;;;;23.50;11.60;;;;;;;28.40;43.43;93779.63;5090346;28;20024;-75
2021/07/15 07:58:22;;;;;;;20.33;11.35;;;;;;;28.38;43.39;93773.03;5090125;28;20016;-76
2021/07/15 08:00:49;;;;;;;20.15;10.75;;;;;;;28.40;43.86;93773.38;5088455;28;20079;-76
2021/07/15 08:03:17;;;;;;;28.08;12.10;;;;;;;28.44;44.16;93773.28;5089596;28;20024;-74
2021/07/15 08:05:44;;;;;;;18.42;11.88;;;;;;;28.53;43.41;93768.75;5071761;28;20020;-75
2021/07/15 08:08:09;;;;;;;21.25;12.95;;;;;;;28.61;43.43;93772.84;5069708;28;20055;-73
2021/07/15 08:10:35;;;;;;;18.38;11.45;;;;;;;28.61;42.80;93772.84;5071111;28;20379;-75
2021/07/15 08:13:00;;;;;;;21.27;10.90;;;;;;;28.69;42.95;93778.94;5090160;28;20028;-74
2021/07/15 08:15:26;;;;;;;17.40;11.68;;;;;;;28.81;42.80;93780.19;5089504;28;20025;-73
2021/07/15 08:17:51;;;;;;;16.08;9.95;;;;;;;28.77;42.67;93774.78;5089702;28;20020;-75
2021/07/15 08:20:17;;;;;;;21.48;11.60;;;;;;;28.80;42.02;93771.19;5088308;28;20042;-75
2021/07/15 08:22:42;;;;;;;23.58;10.25;;;;;;;28.80;41.56;93771.19;5089511;28;20161;-75
2021/07/15 08:25:09;;;;;;;23.52;10.70;;;;;;;28.71;42.28;93767.53;5090091;28;20028;-75
2021/07/15 08:27:35;;;;;;;18.83;10.18;;;;;;;28.69;42.53;93762.47;5089743;28;20115;-75
2021/07/15 08:30:00;;;;;;;23.60;10.43;;;;;;;28.72;42.14;93766.31;5089596;28;20035;-75
2021/07/15 08:32:26;;;;;;;24.05;12.27;;;;;;;28.88;42.85;93765.50;5089899;28;20031;-76
2021/07/15 08:34:51;;;;;;;23.05;11.15;;;;;;;29.03;42.12;93763.94;5089539;28;20024;-75
2021/07/15 08:37:17;;;;;;;22.60;10.40;;;;;;;29.18;41.29;93767.06;5089739;28;20016;-74
2021/07/15 08:39:42;;;;;;;22.65;11.43;;;;;;;29.24;41.17;93767.31;5088206;28;20031;-75
2021/07/15 08:42:09;;;;;;;15.93;10.23;;;;;;;29.31;40.92;93767.09;5089316;28;20020;-74
2021/07/15 08:44:40;;;;;;;17.15;12.23;;;;;;;29.41;41.44;93763.28;5071114;28;20032;-75
2021/07/15 08:47:07;;;;;;;26.58;12.63;;;;;;;29.53;41.39;93753.53;5089592;28;20036;-74
2021/07/15 08:49:36;;;;;;;21.92;12.18;;;;;;;29.57;41.27;93762.41;5091559;28;20402;-74
2021/07/15 08:52:02;;;;;;;17.10;11.48;;;;;;;29.64;40.77;93740.25;5093130;28;20133;-74
2021/07/15 08:54:50;;;;;;;21.52;11.98;;;;;;;29.77;40.59;93749.28;5093413;28;20031;-75
2021/07/15 08:57:16;;;;;;;18.02;11.18;;;;;;;29.79;40.97;93743.34;5093317;28;20494;-74
2021/07/15 08:59:41;;;;;;;19.98;11.50;;;;;;;29.83;40.75;93746.75;5093457;28;20019;-75
2021/07/15 09:02:14;;;;;;;19.08;11.13;;;;;;;29.96;40.73;93742.03;5093068;28;20034;-75
2021/07/15 09:04:39;;;;;;;13.93;11.45;;;;;;;30.08;39.81;93743.22;5093383;28;20028;-76
2021/07/15 09:07:05;;;;;;;19.80;11.50;;;;;;;30.14;39.48;93744.19;5092975;28;20028;-75
2021/07/15 09:09:30;;;;;;;17.92;11.68;;;;;;;29.99;39.21;93732.13;5093009;28;20115;-75
2021/07/15 09:11:56;;;;;;;18.15;11.32;;;;;;;29.87;40.41;93741.16;5093182;28;20062;-75
2021/07/15 09:14:22;;;;;;;19.25;11.15;;;;;;;30.02;40.49;93742.22;5094231;28;20027;-75
2021/07/15 09:16:53;;;;;;;22.90;10.65;;;;;;;29.98;39.58;93741.56;5093016;28;20110;-74
2021/07/15 09:19:21;;;;;;;16.33;10.63;;;;;;;30.02;39.75;93739.47;5092844;28;20027;-74
2021/07/15 09:21:47;;;;;;;15.65;10.35;;;;;;;30.07;39.30;93736.19;5093075;28;20107;-75
2021/07/15 09:24:31;;;;;;;18.58;10.45;;;;;;;30.01;39.00;93729.72;5092881;28;20501;-75
2021/07/15 09:26:58;;;;;;;18.90;11.07;;;;;;;30.15;39.45;93729.25;5092795;28;20486;-74
2021/07/15 09:29:23;;;;;;;13.82;10.82;;;;;;;30.30;39.87;93731.56;5092706;28;20360;-73
2021/07/15 09:32:00;;;;;;;16.98;11.23;;;;;;;30.49;39.37;93730.53;5074411;28;20030;-73
2021/07/15 09:34:28;;;;;;;16.00;11.18;;;;;;;30.60;39.20;93736.44;5074447;28;20024;-73
2021/07/15 09:36:54;;;;;;;15.73;10.75;;;;;;;30.76;38.87;93726.47;5092700;28;20032;-73
2021/07/15 09:39:22;;;;;;;14.27;10.60;;;;;;;30.81;38.51;93720.38;5092494;28;20020;-72
2021/07/15 09:42:05;;;;;;;25.10;10.88;;;;;;;30.90;38.51;93717.00;5092737;28;20040;-73
2021/07/15 09:44:32;;;;;;;27.60;10.77;;;;;;;31.06;38.40;93722.31;5092542;28;20054;-74
2021/07/15 09:46:57;;;;;;;14.75;10.35;;;;;;;31.18;38.21;93718.72;5092363;28;20056;-75
2021/07/15 09:49:30;;;;;;;18.17;11.43;;;;;;;31.27;38.37;93717.97;5074164;28;20123;-74
2021/07/15 09:51:58;;;;;;;16.90;10.90;;;;;;;31.35;38.65;93715.75;5092039;28;20048;-74
2021/07/15 09:54:24;;;;;;;16.55;10.77;;;;;;;31.44;38.16;93707.53;5091085;28;20081;-75
2021/07/15 09:56:49;;;;;;;15.75;10.20;;;;;;;31.57;38.26;93718.47;5092672;28;20422;-75
2021/07/15 09:59:15;;;;;;;20.55;11.88;;;;;;;31.64;37.89;93712.69;5090769;28;20115;-74
2021/07/15 10:01:48;;;;;;;14.40;10.50;;;;;;;31.70;38.13;93715.63;5071742;28;20494;-75
2021/07/15 10:04:21;;;;;;;19.63;11.18;;;;;;;31.76;38.13;93714.56;5092495;28;20024;-75
2021/07/15 10:06:47;;;;;;;17.52;10.68;;;;;;;31.84;37.43;93706.78;5092240;28;20061;-75
2021/07/15 10:09:27;;;;;;;17.80;11.48;;;;;;;31.89;37.93;93700.66;5073258;28;20085;-74
2021/07/15 10:11:56;;;;;;;17.23;10.80;;;;;;;32.03;37.62;93702.13;5091727;28;20044;-74
2021/07/15 10:14:41;;;;;;;16.40;10.27;;;;;;;32.14;37.79;93707.19;5088914;28;20028;-75
2021/07/15 10:17:07;;;;;;;12.95;10.10;;;;;;;32.26;37.17;93702.78;5090309;28;20573;-75
2021/07/15 10:19:33;;;;;;;18.17;9.90;;;;;;;32.32;36.66;93692.69;5090498;28;20031;-74
2021/07/15 10:22:07;;;;;;;15.90;9.80;;;;;;;32.41;36.60;93695.47;5090419;28;20452;-74
2021/07/15 10:24:33;;;;;;;14.50;10.07;;;;;;;32.51;35.95;93685.97;5088721;28;20394;-74
2021/07/15 10:27:09;;;;;;;14.80;10.45;;;;;;;32.62;35.55;93687.53;5090125;28;20028;-74
2021/07/15 10:29:35;;;;;;;16.30;9.90;;;;;;;32.73;35.37;93679.53;5089794;28;20123;-74
2021/07/15 10:32:03;;;;;;;19.05;9.98;;;;;;;32.82;35.71;93687.06;5091400;28;20581;-75
2021/07/15 10:34:31;;;;;;;15.48;9.68;;;;;;;32.89;35.04;93682.00;5091890;28;20089;-75
2021/07/15 10:36:59;;;;;;;14.32;9.05;;;;;;;32.91;34.30;93673.25;5092146;28;20085;-74
2021/07/15 10:39:28;;;;;;;20.05;9.07;;;;;;;32.92;34.48;93681.06;5091791;28;20031;-74
2021/07/15 10:41:56;;;;;;;16.15;8.93;;;;;;;32.91;34.48;93671.28;5091948;28;20433;-74
2021/07/15 10:44:23;;;;;;;15.23;9.00;;;;;;;32.88;34.80;93672.19;5090310;28;20107;-74
2021/07/15 10:46:51;;;;;;;14.75;9.50;;;;;;;32.98;34.69;93670.19;5092088;28;20077;-74
2021/07/15 10:49:18;;;;;;;17.63;9.00;;;;;;;33.10;34.61;93674.03;5091472;28;20394;-74
2021/07/15 10:51:45;;;;;;;16.73;8.43;;;;;;;33.24;34.53;93678.91;5091585;28;20039;-75
2021/07/15 10:54:13;;;;;;;14.98;8.57;;;;;;;33.34;34.12;93669.38;5073369;28;20047;-75
2021/07/15 10:56:39;;;;;;;16.20;9.35;;;;;;;33.24;34.24;93675.34;5091231;28;20544;-75
2021/07/15 10:59:21;;;;;;;22.92;8.55;;;;;;;33.28;33.82;93667.66;5091353;28;20024;-75
2021/07/15 11:01:46;;;;;;;15.63;8.30;;;;;;;33.36;33.99;93658.63;5091204;28;20027;-75
2021/07/15 11:04:14;;;;;;;11.70;8.20;;;;;;;33.43;33.83;93659.50;5091397;28;20024;-75
2021/07/15 11:06:51;;;;;;;15.73;7.93;;;;;;;33.33;33.51;93656.78;5090396;28;20475;-76
2021/07/15 11:09:22;;;;;;;17.65;8.02;;;;;;;33.43;32.99;93654.00;5090148;28;20063;-74
2021/07/15 11:11:48;;;;;;;21.63;8.18;;;;;;;33.42;33.28;93658.72;5088702;28;20079;-74
2021/07/15 11:14:32;;;;;;;18.80;7.93;;;;;;;33.50;32.89;93651.66;5090506;28;20059;-74
2021/07/15 11:16:57;;;;;;;10.75;7.88;;;;;;;33.56;32.96;93646.25;5090535;28;20054;-74
2021/07/15 11:19:52;;;;;;;19.27;8.48;;;;;;;33.78;32.17;93646.03;5087470;28;20021;-74
2021/07/15 11:22:43;;;;;;;13.32;7.97;;;;;;;33.90;32.04;93655.34;5086315;28;20032;-73
2021/07/15 11:25:28;;;;;;;21.88;8.55;;;;;;;34.04;31.36;93646.34;5090641;28;20020;-74